createdAt,value
2018-11-28T00:01:37.927Z,98690.62
2018-11-28T00:04:08.132Z,98692.06
2018-11-28T00:06:37.657Z,98698.35
2018-11-28T00:09:09.815Z,98692.20
2018-11-28T00:11:39.290Z,98691.44
2018-11-28T00:14:09.113Z,98688.06
2018-11-28T00:16:38.676Z,98687.12
2018-11-28T00:19:08.748Z,98682.16
2018-11-28T00:21:38.182Z,98687.84
2018-11-28T00:24:08.288Z,98675.66
2018-11-28T00:26:37.570Z,98679.20
2018-11-28T00:29:07.159Z,98677.30
2018-11-28T00:31:36.886Z,98677.56
2018-11-28T00:34:07.027Z,98672.29
2018-11-28T00:36:36.395Z,98687.39
2018-11-28T00:39:08.551Z,98687.08
2018-11-28T00:41:38.541Z,98687.67
2018-11-28T00:44:08.021Z,98683.44
2018-11-28T00:46:37.620Z,98683.26
2018-11-28T00:49:07.222Z,98686.57
2018-11-28T00:51:36.701Z,98689.34
2018-11-28T00:54:07.655Z,98684.77
2018-11-28T00:56:37.095Z,98684.46
2018-11-28T00:59:06.896Z,98684.77
2018-11-28T01:01:36.241Z,98686.75
2018-11-28T01:04:05.993Z,98687.56
2018-11-28T01:06:35.593Z,98691.33
2018-11-28T01:09:06.801Z,98692.15
2018-11-28T01:11:36.104Z,98691.02
2018-11-28T01:14:05.781Z,98692.91
2018-11-28T01:16:35.445Z,98699.67
2018-11-28T01:19:05.249Z,98705.31
2018-11-28T01:21:34.832Z,98697.00
2018-11-28T01:24:05.140Z,98695.39
2018-11-28T01:26:34.431Z,98694.81
2018-11-28T01:29:03.921Z,98694.23
2018-11-28T01:31:34.788Z,98697.36
2018-11-28T01:34:04.221Z,98701.12
2018-11-28T01:36:34.091Z,98695.72
2018-11-28T01:39:03.987Z,98694.86
2018-11-28T01:41:33.570Z,98689.97
2018-11-28T01:44:03.532Z,98690.34
2018-11-28T01:46:32.976Z,98686.38
2018-11-28T01:49:03.160Z,98685.05
2018-11-28T01:51:32.475Z,98677.79
2018-11-28T01:54:01.742Z,98674.85
2018-11-28T01:56:31.790Z,98674.37
2018-11-28T01:59:01.130Z,98674.95
2018-11-28T02:01:30.435Z,98671.25
2018-11-28T02:04:00.342Z,98670.22
2018-11-28T02:06:30.813Z,98674.34
2018-11-28T02:09:00.133Z,98666.95
2018-11-28T02:11:30.030Z,98670.89
2018-11-28T02:13:59.333Z,98666.89
2018-11-28T02:16:28.677Z,98663.64
2018-11-28T02:18:58.665Z,98662.76
2018-11-28T02:21:28.128Z,98672.98
2018-11-28T02:23:58.957Z,98672.16
2018-11-28T02:26:28.351Z,98671.34
2018-11-28T02:28:57.730Z,98665.91
2018-11-28T02:31:27.382Z,98668.84
2018-11-28T02:33:56.946Z,98672.84
2018-11-28T02:36:26.421Z,98674.18
2018-11-28T02:38:55.965Z,98674.80
2018-11-28T02:41:25.610Z,98681.20
2018-11-28T02:43:55.070Z,98675.55
2018-11-28T02:46:30.475Z,98678.53
2018-11-28T02:49:00.078Z,98678.22
2018-11-28T02:51:29.422Z,98680.78
2018-11-28T02:53:58.730Z,98684.61
2018-11-28T02:56:28.759Z,98676.30
2018-11-28T02:58:58.955Z,98669.58
2018-11-28T03:01:28.462Z,98668.30
2018-11-28T03:03:58.526Z,98670.52
2018-11-28T03:06:28.447Z,98668.95
2018-11-28T03:08:57.897Z,98671.34
2018-11-28T03:11:27.360Z,98673.47
2018-11-28T03:13:57.201Z,98675.34
2018-11-28T03:16:26.494Z,98670.22
2018-11-28T03:18:56.637Z,98674.28
2018-11-28T03:21:26.677Z,98675.38
2018-11-28T03:23:56.107Z,98671.69
2018-11-28T03:26:26.227Z,98677.47
2018-11-28T03:28:56.050Z,98672.72
2018-11-28T03:31:25.614Z,98677.47
2018-11-28T03:33:55.071Z,98680.95
2018-11-28T03:36:25.249Z,98679.93
2018-11-28T03:38:55.030Z,98681.53
2018-11-28T03:41:24.533Z,98683.45
2018-11-28T03:43:54.636Z,98686.02
2018-11-28T03:46:24.028Z,98685.64
2018-11-28T03:48:54.127Z,98687.22
2018-11-28T03:51:23.518Z,98679.80
2018-11-28T03:53:53.768Z,98685.30
2018-11-28T03:56:23.395Z,98680.48
2018-11-28T03:58:53.066Z,98677.98
2018-11-28T04:01:22.533Z,98683.08
2018-11-28T04:03:52.397Z,98678.52
2018-11-28T04:06:21.862Z,98680.22
2018-11-28T04:08:51.916Z,98680.45
2018-11-28T04:11:22.983Z,98680.24
2018-11-28T04:13:52.386Z,98684.03
2018-11-28T04:16:23.490Z,98683.47
2018-11-28T04:18:53.367Z,98682.39
2018-11-28T04:21:23.121Z,98679.55
2018-11-28T04:23:53.858Z,98675.09
2018-11-28T04:26:24.132Z,98690.24
2018-11-28T04:28:54.326Z,98682.16
2018-11-28T04:31:24.641Z,98683.17
2018-11-28T04:33:54.761Z,98681.09
2018-11-28T04:36:27.088Z,98690.58
2018-11-28T04:38:57.034Z,98690.37
2018-11-28T04:41:30.129Z,98696.07
2018-11-28T04:44:00.462Z,98697.48
2018-11-28T04:46:30.617Z,98694.90
2018-11-28T04:49:00.711Z,98685.19
2018-11-28T04:51:30.268Z,98692.00
2018-11-28T04:54:00.467Z,98692.00
2018-11-28T04:56:30.587Z,98694.83
2018-11-28T04:59:00.122Z,98691.73
2018-11-28T05:01:29.794Z,98691.52
2018-11-28T05:03:59.922Z,98694.91
2018-11-28T05:07:43.329Z,98688.53
2018-11-28T05:10:24.483Z,98697.06
2018-11-28T05:12:54.499Z,98692.02
2018-11-28T05:15:28.858Z,98688.31
2018-11-28T05:17:58.450Z,98690.04
2018-11-28T05:20:29.162Z,98691.94
2018-11-28T05:22:59.206Z,98688.23
2018-11-28T05:25:29.351Z,98688.92
2018-11-28T05:27:59.603Z,98686.29
2018-11-28T05:30:30.113Z,98687.78
2018-11-28T05:33:00.081Z,98687.95
2018-11-28T05:35:33.255Z,98690.05
2018-11-28T05:38:04.263Z,98690.17
2018-11-28T05:40:33.869Z,98690.84
2018-11-28T05:43:03.696Z,98696.77
2018-11-28T05:45:33.115Z,98702.25
2018-11-28T05:48:03.038Z,98709.06
2018-11-28T05:50:33.304Z,98700.52
2018-11-28T05:53:03.664Z,98702.27
2018-11-28T05:55:33.719Z,98706.58
2018-11-28T05:58:03.820Z,98706.09
2018-11-28T06:00:38.534Z,98707.14
2018-11-28T06:03:09.148Z,98700.24
2018-11-28T06:05:38.515Z,98700.77
2018-11-28T06:08:08.539Z,98709.72
2018-11-28T06:10:38.959Z,98712.30
2018-11-28T06:13:10.524Z,98718.66
2018-11-28T06:15:40.125Z,98719.45
2018-11-28T06:18:10.400Z,98724.80
2018-11-28T06:20:39.744Z,98723.59
2018-11-28T06:23:09.771Z,98725.97
2018-11-28T06:25:39.547Z,98726.70
2018-11-28T06:28:09.187Z,98732.87
2018-11-28T06:30:39.412Z,98735.84
2018-11-28T06:33:10.557Z,98745.80
2018-11-28T06:35:39.872Z,98745.07
2018-11-28T06:38:09.250Z,98744.11
2018-11-28T06:40:39.147Z,98742.75
2018-11-28T06:43:09.378Z,98737.28
2018-11-28T06:45:38.796Z,98737.43
2018-11-28T06:48:09.327Z,98741.16
2018-11-28T06:50:40.463Z,98743.52
2018-11-28T06:53:10.405Z,98744.98
2018-11-28T06:55:40.513Z,98751.66
2018-11-28T06:58:10.894Z,98761.23
2018-11-28T07:00:40.930Z,98757.89
2018-11-28T07:03:10.989Z,98764.34
2018-11-28T07:05:41.191Z,98765.81
2018-11-28T07:08:11.463Z,98764.06
2018-11-28T07:10:42.757Z,98765.36
2018-11-28T07:13:12.807Z,98768.58
2018-11-28T07:15:43.365Z,98774.16
2018-11-28T07:18:23.932Z,98780.22
2018-11-28T07:20:54.467Z,98777.81
2018-11-28T07:23:24.409Z,98785.41
2018-11-28T07:25:54.058Z,98785.42
2018-11-28T07:28:23.998Z,98789.87
2018-11-28T07:30:53.993Z,98785.95
2018-11-28T07:33:24.712Z,98785.75
2018-11-28T07:35:54.577Z,98787.95
2018-11-28T07:38:24.428Z,98801.51
2018-11-28T07:40:54.678Z,98805.42
2018-11-28T07:43:24.214Z,98803.27
2018-11-28T07:45:54.069Z,98814.83
2018-11-28T07:48:24.294Z,98809.40
2018-11-28T07:50:53.679Z,98806.25
2018-11-28T07:53:23.670Z,98799.52
2018-11-28T07:55:53.474Z,98796.27
2018-11-28T07:58:23.109Z,98793.02
2018-11-28T08:00:52.469Z,98805.97
2018-11-28T08:03:22.515Z,98803.52
2018-11-28T08:05:52.074Z,98808.04
2018-11-28T08:08:45.989Z,98812.98
2018-11-28T08:11:22.626Z,98809.58
2018-11-28T08:13:52.579Z,98807.06
2018-11-28T08:16:21.930Z,98819.81
2018-11-28T08:18:51.278Z,98824.55
2018-11-28T08:21:21.594Z,98819.58
2018-11-28T08:23:51.582Z,98816.62
2018-11-28T08:26:20.984Z,98816.24
2018-11-28T08:28:50.564Z,98817.97
2018-11-28T08:31:20.066Z,98828.39
2018-11-28T08:33:50.351Z,98822.16
2018-11-28T08:36:20.400Z,98820.15
2018-11-28T08:38:50.786Z,98822.84
2018-11-28T08:41:20.333Z,98827.56
2018-11-28T08:43:49.699Z,98836.83
2018-11-28T08:46:19.628Z,98835.97
2018-11-28T08:48:49.134Z,98832.26
2018-11-28T08:51:18.743Z,98830.55
2018-11-28T08:53:48.924Z,98828.53
2018-11-28T08:56:19.096Z,98827.16
2018-11-28T08:58:48.560Z,98828.81
2018-11-28T09:01:18.582Z,98831.34
2018-11-28T09:03:47.947Z,98832.45
2018-11-28T09:06:18.112Z,98835.08
2018-11-28T09:08:47.821Z,98842.17
2018-11-28T09:11:17.245Z,98846.95
2018-11-28T09:13:46.645Z,98846.80
2018-11-28T09:16:16.161Z,98845.47
2018-11-28T09:18:45.995Z,98853.30
2018-11-28T09:21:15.896Z,98850.19
2018-11-28T09:23:45.474Z,98844.58
2018-11-28T09:26:20.672Z,98846.55
2018-11-28T09:28:50.594Z,98847.45
2018-11-28T09:31:19.999Z,98849.41
2018-11-28T09:33:50.316Z,98845.42
2018-11-28T09:36:20.414Z,98850.30
2018-11-28T09:38:49.720Z,98852.77
2018-11-28T09:41:19.801Z,98851.02
2018-11-28T09:43:49.208Z,98852.20
2018-11-28T09:46:19.456Z,98856.93
2018-11-28T09:48:49.339Z,98852.14
2018-11-28T09:51:18.627Z,98859.63
2018-11-28T09:53:48.201Z,98863.08
2018-11-28T09:56:17.720Z,98854.72
2018-11-28T09:58:47.202Z,98853.90
2018-11-28T10:01:17.546Z,98849.99
2018-11-28T10:03:47.763Z,98846.62
2018-11-28T10:06:17.182Z,98847.41
2018-11-28T10:08:46.601Z,98842.16
2018-11-28T10:11:16.371Z,98841.35
2018-11-28T10:13:45.725Z,98842.19
2018-11-28T10:16:15.820Z,98843.30
2018-11-28T10:18:45.817Z,98845.50
2018-11-28T10:21:15.526Z,98831.10
2018-11-28T10:23:45.371Z,98833.66
2018-11-28T10:26:14.950Z,98832.69
2018-11-28T10:28:45.055Z,98830.13
2018-11-28T10:31:16.511Z,98821.89
2018-11-28T10:33:45.955Z,98815.52
2018-11-28T10:36:15.443Z,98817.59
2018-11-28T10:38:44.707Z,98807.83
2018-11-28T10:41:14.982Z,98799.63
2018-11-28T10:43:44.621Z,98802.69
2018-11-28T10:46:14.245Z,98805.80
2018-11-28T10:48:44.492Z,98798.02
2018-11-28T10:51:13.770Z,98800.41
2018-11-28T10:53:43.472Z,98804.54
2018-11-28T10:56:12.991Z,98801.09
2018-11-28T10:58:42.441Z,98800.08
2018-11-28T11:01:17.407Z,98804.58
2018-11-28T11:03:51.928Z,98795.11
2018-11-28T11:06:26.461Z,98791.22
2018-11-28T11:09:01.150Z,98790.98
2018-11-28T11:11:35.908Z,98793.00
2018-11-28T11:14:10.608Z,98791.92
2018-11-28T11:16:40.220Z,98782.76
2018-11-28T11:19:10.481Z,98787.61
2018-11-28T11:21:40.808Z,98790.03
2018-11-28T11:24:10.541Z,98781.65
2018-11-28T11:26:39.905Z,98783.14
2018-11-28T11:29:09.526Z,98788.87
2018-11-28T11:31:39.123Z,98785.85
2018-11-28T11:34:08.906Z,98788.27
2018-11-28T11:36:38.652Z,98783.70
2018-11-28T11:39:08.810Z,98773.63
2018-11-28T11:41:39.002Z,98775.55
2018-11-28T11:44:09.266Z,98779.88
2018-11-28T11:46:38.616Z,98784.98
2018-11-28T11:49:08.511Z,98774.47
2018-11-28T11:51:38.005Z,98773.37
2018-11-28T11:54:08.024Z,98776.00
2018-11-28T11:56:37.390Z,98773.70
2018-11-28T11:59:07.407Z,98777.27
2018-11-28T12:01:36.730Z,98770.52
2018-11-28T12:04:06.173Z,98763.24
2018-11-28T12:06:35.633Z,98762.72
2018-11-28T12:09:08.249Z,98757.42
2018-11-28T12:11:37.738Z,98747.72
2018-11-28T12:14:07.326Z,98756.11
2018-11-28T12:16:36.863Z,98749.39
2018-11-28T12:19:06.696Z,98753.25
2018-11-28T12:21:36.932Z,98749.75
2018-11-28T12:24:06.536Z,98747.28
2018-11-28T12:26:36.972Z,98750.42
2018-11-28T12:29:07.216Z,98754.00
2018-11-28T12:31:37.096Z,98741.48
2018-11-28T12:34:07.361Z,98732.99
2018-11-28T12:36:36.766Z,98741.19
2018-11-28T12:39:10.512Z,98740.03
2018-11-28T12:41:39.885Z,98739.48
2018-11-28T12:44:09.371Z,98741.64
2018-11-28T12:46:39.257Z,98738.86
2018-11-28T12:49:08.507Z,98739.91
2018-11-28T12:51:37.934Z,98742.28
2018-11-28T12:54:08.207Z,98736.81
2018-11-28T12:56:37.810Z,98745.61
2018-11-28T12:59:07.402Z,98746.22
2018-11-28T13:01:36.884Z,98740.30
2018-11-28T13:04:07.335Z,98745.23
2018-11-28T13:06:36.886Z,98742.17
2018-11-28T13:09:07.437Z,98742.34
2018-11-28T13:11:37.007Z,98740.68
2018-11-28T13:14:06.907Z,98741.84
2018-11-28T13:16:36.731Z,98744.69
2018-11-28T13:19:06.683Z,98743.63
2018-11-28T13:21:36.211Z,98745.74
2018-11-28T13:24:06.363Z,98738.19
2018-11-28T13:26:36.092Z,98732.59
2018-11-28T13:29:06.253Z,98732.32
2018-11-28T13:31:35.949Z,98735.02
2018-11-28T13:34:06.244Z,98736.11
2018-11-28T13:36:35.646Z,98737.48
2018-11-28T13:39:06.155Z,98737.47
2018-11-28T13:41:35.836Z,98741.25
2018-11-28T13:44:05.336Z,98733.69
2018-11-28T13:46:35.211Z,98729.66
2018-11-28T13:49:05.709Z,98729.08
2018-11-28T13:51:35.366Z,98720.72
2018-11-28T13:54:20.797Z,98725.81
2018-11-28T13:59:04.303Z,98723.13
2018-11-28T14:01:34.536Z,98726.89
2018-11-28T14:04:04.037Z,98733.59
2018-11-28T14:06:33.805Z,98729.30
2018-11-28T14:09:04.952Z,98732.27
2018-11-28T14:11:34.441Z,98724.97
2018-11-28T14:14:05.432Z,98721.70
2018-11-28T14:16:34.783Z,98722.48
2018-11-28T14:19:04.261Z,98730.81
2018-11-28T14:21:33.923Z,98729.70
2018-11-28T14:24:04.338Z,98732.11
2018-11-28T14:26:33.714Z,98733.20
2018-11-28T14:29:03.527Z,98736.14
2018-11-28T14:31:33.886Z,98726.75
2018-11-28T14:34:03.393Z,98736.38
2018-11-28T14:36:33.408Z,98741.67
2018-11-28T14:39:02.856Z,98747.31
2018-11-28T14:41:33.620Z,98744.03
2018-11-28T14:44:02.264Z,98739.71
2018-11-28T14:46:32.128Z,98739.12
2018-11-28T14:49:02.312Z,98746.94
2018-11-28T14:51:32.663Z,98756.05
2018-11-28T14:54:02.784Z,98760.17
2018-11-28T14:56:32.269Z,98761.77
2018-11-28T14:59:02.332Z,98760.37
2018-11-28T15:01:32.551Z,98765.45
2018-11-28T15:04:02.706Z,98762.74
2018-11-28T15:06:34.928Z,98765.11
2018-11-28T15:09:12.921Z,98759.40
2018-11-28T15:11:43.514Z,98766.36
2018-11-28T15:14:13.156Z,98761.69
2018-11-28T15:16:43.302Z,98765.16
2018-11-28T15:19:12.658Z,98755.50
2018-11-28T15:21:42.929Z,98755.39
2018-11-28T15:24:13.004Z,98760.97
2018-11-28T15:26:42.277Z,98758.28
2018-11-28T15:29:11.692Z,98751.65
2018-11-28T15:31:41.609Z,98749.26
2018-11-28T15:34:11.304Z,98754.56
2018-11-28T15:36:41.013Z,98754.13
2018-11-28T15:39:11.224Z,98761.08
2018-11-28T15:41:40.755Z,98758.06
2018-11-28T15:44:10.646Z,98758.84
2018-11-28T15:46:40.899Z,98752.59
2018-11-28T15:49:12.407Z,98759.11
2018-11-28T15:51:41.940Z,98757.73
2018-11-28T15:54:11.457Z,98757.17
2018-11-28T15:56:41.024Z,98764.66
2018-11-28T15:59:10.492Z,98763.61
2018-11-28T16:01:40.159Z,98756.31
2018-11-28T16:04:09.574Z,98755.08
2018-11-28T16:06:39.532Z,98761.48
2018-11-28T16:09:13.669Z,98759.28
2018-11-28T16:11:43.083Z,98756.30
2018-11-28T16:14:12.967Z,98751.42
2018-11-28T16:16:42.440Z,98760.94
2018-11-28T16:19:12.012Z,98767.84
2018-11-28T16:21:41.817Z,98759.16
2018-11-28T16:24:12.936Z,98756.05
2018-11-28T16:26:43.155Z,98759.11
2018-11-28T16:29:14.553Z,98752.58
2018-11-28T16:31:44.463Z,98760.70
2018-11-28T16:34:14.855Z,98760.34
2018-11-28T16:36:44.882Z,98765.97
2018-11-28T16:39:15.979Z,98757.32
2018-11-28T16:41:45.914Z,98765.31
2018-11-28T16:44:16.367Z,98771.69
2018-11-28T16:46:46.936Z,98765.36
2018-11-28T16:49:17.809Z,98755.69
2018-11-28T16:51:48.003Z,98755.64
2018-11-28T16:54:18.048Z,98766.29
2018-11-28T16:56:47.645Z,98766.50
2018-11-28T16:59:18.103Z,98765.16
2018-11-28T17:01:47.887Z,98759.19
2018-11-28T17:04:17.970Z,98765.98
2018-11-28T17:06:48.413Z,98759.19
2018-11-28T17:09:18.564Z,98766.80
2018-11-28T17:11:48.753Z,98752.33
2018-11-28T17:14:18.737Z,98749.10
2018-11-28T17:16:48.417Z,98749.88
2018-11-28T17:19:18.439Z,98748.06
2018-11-28T17:21:48.483Z,98746.97
2018-11-28T17:24:18.406Z,98742.64
2018-11-28T17:26:48.376Z,98746.70
2018-11-28T17:29:18.583Z,98749.84
2018-11-28T17:31:48.427Z,98743.67
2018-11-28T17:34:18.142Z,98744.81
2018-11-28T17:36:48.178Z,98753.41
2018-11-28T17:39:17.882Z,98743.53
2018-11-28T17:41:47.994Z,98745.37
2018-11-28T17:44:19.270Z,98747.42
2018-11-28T17:46:49.617Z,98746.22
2018-11-28T17:49:19.784Z,98752.34
2018-11-28T17:51:50.843Z,98757.91
2018-11-28T17:54:21.073Z,98752.23
2018-11-28T17:56:51.250Z,98755.56
2018-11-28T17:59:21.928Z,98759.63
2018-11-28T18:01:52.653Z,98759.33
2018-11-28T18:04:22.840Z,98763.02
2018-11-28T18:06:52.923Z,98763.66
2018-11-28T18:09:23.479Z,98766.64
2018-11-28T18:11:53.576Z,98768.75
2018-11-28T18:14:23.694Z,98766.97
2018-11-28T18:16:53.734Z,98762.78
2018-11-28T18:19:23.732Z,98774.70
2018-11-28T18:21:53.930Z,98786.27
2018-11-28T18:24:24.226Z,98784.60
2018-11-28T18:26:54.344Z,98787.55
2018-11-28T18:29:24.914Z,98789.07
2018-11-28T18:31:55.904Z,98781.30
2018-11-28T18:34:26.179Z,98779.16
2018-11-28T18:36:56.206Z,98776.61
2018-11-28T18:39:26.668Z,98772.14
2018-11-28T18:41:56.815Z,98775.56
2018-11-28T18:44:28.257Z,98779.31
2018-11-28T18:46:58.157Z,98777.06
2018-11-28T18:49:28.775Z,98782.20
2018-11-28T18:51:59.107Z,98771.97
2018-11-28T18:54:28.949Z,98777.06
2018-11-28T18:56:58.881Z,98788.70
2018-11-28T18:59:29.109Z,98786.92
2018-11-28T19:02:00.543Z,98796.09
2018-11-28T19:04:32.616Z,98798.17
2018-11-28T19:07:03.047Z,98801.59
2018-11-28T19:09:38.707Z,98797.35
2018-11-28T19:12:10.051Z,98793.96
2018-11-28T19:14:40.118Z,98791.77
2018-11-28T19:17:10.402Z,98788.20
2018-11-28T19:19:40.668Z,98791.70
2018-11-28T19:22:10.852Z,98790.78
2018-11-28T19:24:41.727Z,98795.13
2018-11-28T19:27:13.426Z,98789.34
2018-11-28T19:29:44.293Z,98777.06
2018-11-28T19:32:16.374Z,98787.43
2018-11-28T19:34:47.558Z,98785.09
2018-11-28T19:37:19.000Z,98788.80
2018-11-28T19:39:48.865Z,98796.14
2018-11-28T19:42:19.028Z,98792.06
2018-11-28T19:44:49.541Z,98802.83
2018-11-28T19:47:19.693Z,98791.58
2018-11-28T19:49:49.628Z,98798.92
2018-11-28T19:52:20.038Z,98781.63
2018-11-28T19:54:51.200Z,98775.94
2018-11-28T19:57:22.462Z,98778.84
2018-11-28T19:59:54.385Z,98780.77
2018-11-28T20:02:24.842Z,98793.44
2018-11-28T20:04:55.754Z,98789.31
2018-11-28T20:07:26.089Z,98789.91
2018-11-28T20:09:59.215Z,98793.73
2018-11-28T20:12:29.096Z,98790.41
2018-11-28T20:14:59.326Z,98792.60
2018-11-28T20:17:32.634Z,98802.75
2018-11-28T20:20:03.170Z,98809.73
2018-11-28T20:22:34.997Z,98804.16
2018-11-28T20:25:06.473Z,98808.09
2018-11-28T20:27:37.544Z,98812.16
2018-11-28T20:30:17.958Z,98814.01
2018-11-28T20:32:49.464Z,98812.63
2018-11-28T20:35:20.665Z,98812.17
2018-11-28T20:37:50.568Z,98804.41
2018-11-28T20:40:23.832Z,98808.98
2018-11-28T20:42:55.352Z,98804.83
2018-11-28T20:45:25.585Z,98807.33
2018-11-28T20:47:55.459Z,98803.48
2018-11-28T20:50:27.765Z,98809.33
2018-11-28T20:53:00.601Z,98800.73
2018-11-28T20:55:31.237Z,98805.22
2018-11-28T20:58:01.243Z,98809.81
2018-11-28T21:00:30.999Z,98809.97
2018-11-28T21:03:01.555Z,98815.30
2018-11-28T21:05:31.562Z,98812.47
2018-11-28T21:08:01.679Z,98823.33
2018-11-28T21:10:36.853Z,98819.78
2018-11-28T21:13:08.047Z,98812.44
2018-11-28T21:15:37.881Z,98813.70
2018-11-28T21:18:09.373Z,98808.70
2018-11-28T21:20:40.508Z,98803.88
2018-11-28T21:23:11.850Z,98794.34
2018-11-28T21:25:42.041Z,98790.61
2018-11-28T21:28:11.983Z,98784.11
2018-11-28T21:30:41.640Z,98784.69
2018-11-28T21:33:12.452Z,98776.55
2018-11-28T21:35:43.951Z,98772.41
2018-11-28T21:38:13.777Z,98768.69
2018-11-28T21:40:43.393Z,98762.77
2018-11-28T21:43:12.917Z,98759.34
2018-11-28T21:45:42.468Z,98764.23
2018-11-28T21:48:15.464Z,98764.34
2018-11-28T21:50:45.828Z,98760.88
2018-11-28T21:53:16.127Z,98768.82
2018-11-28T21:55:46.053Z,98761.09
2018-11-28T21:58:15.760Z,98767.02
2018-11-28T22:00:45.644Z,98774.64
2018-11-28T22:03:15.401Z,98773.37
2018-11-28T22:05:45.002Z,98774.19
2018-11-28T22:08:15.314Z,98774.02
2018-11-28T22:10:45.502Z,98770.36
2018-11-28T22:13:15.674Z,98770.48
2018-11-28T22:15:45.927Z,98767.13
2018-11-28T22:18:15.554Z,98767.13
2018-11-28T22:20:45.238Z,98762.00
2018-11-28T22:23:15.600Z,98767.78
2018-11-28T22:25:46.272Z,98764.94
2018-11-28T22:28:16.074Z,98762.97
2018-11-28T22:30:46.129Z,98751.47
2018-11-28T22:33:16.319Z,98752.87
2018-11-28T22:35:46.474Z,98752.69
2018-11-28T22:38:15.754Z,98749.02
2018-11-28T22:40:45.853Z,98744.56
2018-11-28T22:43:15.203Z,98743.56
2018-11-28T22:45:45.605Z,98743.05
2018-11-28T22:48:15.139Z,98745.08
2018-11-28T22:50:44.763Z,98741.64
2018-11-28T22:53:14.167Z,98740.61
2018-11-28T22:55:43.668Z,98733.94
2018-11-28T22:58:13.398Z,98733.45
2018-11-28T23:00:48.693Z,98727.08
2018-11-28T23:03:18.790Z,98722.50
2018-11-28T23:05:50.765Z,98720.09
2018-11-28T23:08:21.122Z,98715.58
2018-11-28T23:10:52.110Z,98719.88
2018-11-28T23:13:23.895Z,98716.66
2018-11-28T23:15:53.533Z,98709.98
2018-11-28T23:18:23.570Z,98704.13
2018-11-28T23:20:53.893Z,98703.44
2018-11-28T23:23:23.253Z,98693.70
2018-11-28T23:25:54.797Z,98694.39
2018-11-28T23:28:24.195Z,98688.23
2018-11-28T23:30:53.664Z,98690.87
2018-11-28T23:33:23.028Z,98694.21
2018-11-28T23:35:53.370Z,98694.52
2018-11-28T23:38:24.158Z,98691.59
2018-11-28T23:40:54.386Z,98693.23
2018-11-28T23:43:24.410Z,98691.41
2018-11-28T23:45:54.020Z,98692.72
2018-11-28T23:48:24.226Z,98689.50
2018-11-28T23:50:54.239Z,98679.88
2018-11-28T23:53:24.219Z,98666.80
2018-11-28T23:55:53.835Z,98667.63
2018-11-28T23:58:23.543Z,98674.05
